Time;durP1;ratioP1;P1;durP2;ratioP2;P2;SDS_P1;SDS_P2;PMS_P1;PMS_P2;Temp;Humidity;BMP_temperature;BMP_pressure;BME280_temperature;BME280_humidity;BME280_pressure;Samples;Min_cycle;Max_cycle;Signal;HPM_P1;HPM_P2
2022/08/01 04:27:30;;;;;;;4.63;4.23;;;;;;;16.77;83.64;100132.03;6669025;26;134557;-88
2022/08/01 04:30:55;;;;;;;7.30;4.20;;;;;;;16.77;83.64;100132.03;6621757;26;33102;-88
2022/08/01 04:34:05;;;;;;;6.43;4.53;;;;;;;16.32;85.42;100132.88;6642062;26;33615;-88
2022/08/01 04:37:10;;;;;;;6.37;4.10;;;;;;;16.36;84.81;100122.78;6648986;26;34369;-89
2022/08/01 04:40:16;;;;;;;5.50;4.62;;;;;;;16.42;84.54;100133.00;6644950;26;34595;-88
2022/08/01 04:43:19;;;;;;;5.15;4.25;;;;;;;16.51;84.47;100136.78;6641830;26;33686;-89
2022/08/01 04:46:22;;;;;;;5.20;4.30;;;;;;;16.65;85.18;100131.16;6642389;26;34008;-89
2022/08/01 04:49:25;;;;;;;4.72;4.10;;;;;;;16.78;83.07;100138.22;6642020;26;35070;-90
2022/08/01 04:52:38;;;;;;;4.53;4.12;;;;;;;16.87;83.37;100142.88;6656853;26;34171;-89
2022/08/01 04:55:43;;;;;;;6.65;4.18;;;;;;;16.95;83.12;100140.41;6660284;26;34792;-88
2022/08/01 04:58:46;;;;;;;5.72;4.57;;;;;;;17.04;82.33;100141.53;6643790;26;34863;-90
2022/08/01 05:02:00;;;;;;;7.93;4.10;;;;;;;17.57;79.72;100139.94;6642449;26;33655;-89
2022/08/01 05:05:02;;;;;;;4.70;4.30;;;;;;;18.41;78.46;100140.94;6621886;26;33673;-89
2022/08/01 05:08:05;;;;;;;5.78;3.65;;;;;;;19.53;72.01;100141.03;6621350;26;33100;-89
2022/08/01 05:11:08;;;;;;;4.10;3.45;;;;;;;19.41;71.57;100140.31;6640514;26;33799;-89
2022/08/01 05:14:11;;;;;;;8.02;4.20;;;;;;;19.61;71.29;100134.97;6640175;26;33809;-89
2022/08/01 05:17:14;;;;;;;5.12;3.40;;;;;;;19.72;69.54;100133.97;6621246;26;32644;-89
2022/08/01 05:20:17;;;;;;;5.97;3.92;;;;;;;19.74;70.35;100134.66;6641172;26;34437;-89
2022/08/01 05:23:20;;;;;;;4.53;3.60;;;;;;;19.84;70.97;100132.81;6642284;26;34489;-89
2022/08/01 05:26:56;;;;;;;4.20;3.80;;;;;;;20.66;66.62;100143.13;6639296;26;34711;-89
2022/08/01 05:29:59;;;;;;;4.10;3.70;;;;;;;21.00;64.50;100144.44;6629866;26;34333;-88
2022/08/01 05:33:01;;;;;;;6.03;3.60;;;;;;;21.36;62.54;100143.62;6634287;26;33856;-89
2022/08/01 05:36:04;;;;;;;6.70;3.67;;;;;;;21.40;63.74;100137.81;6615280;26;34030;-90
2022/08/01 05:39:07;;;;;;;6.72;3.80;;;;;;;22.35;61.00;100136.41;6633666;26;34825;-88
2022/08/01 05:42:10;;;;;;;4.18;3.78;;;;;;;23.02;57.99;100134.88;6634496;26;33832;-89
2022/08/01 05:45:12;;;;;;;4.05;3.60;;;;;;;22.85;57.84;100139.38;6631142;26;34041;-88
2022/08/01 05:48:15;;;;;;;4.60;3.40;;;;;;;22.95;57.46;100141.94;6635527;26;34555;-89
2022/08/01 05:51:18;;;;;;;7.35;3.58;;;;;;;23.87;54.32;100140.28;6634293;26;33728;-89
2022/08/01 05:54:21;;;;;;;5.35;3.83;;;;;;;23.53;55.22;100150.22;6634764;26;34324;-88
2022/08/01 05:57:23;;;;;;;4.05;3.50;;;;;;;23.79;53.76;100146.53;6628890;26;34217;-88
2022/08/01 06:00:26;;;;;;;4.68;3.40;;;;;;;23.30;56.47;100144.59;6634067;26;34496;-89
2022/08/01 06:03:31;;;;;;;3.87;3.08;;;;;;;22.87;57.22;100150.88;6614324;26;32741;-88
2022/08/01 06:06:35;;;;;;;3.67;3.35;;;;;;;23.17;57.24;100144.22;6633996;26;33937;-88
2022/08/01 06:09:38;;;;;;;4.80;3.75;;;;;;;22.46;58.42;100148.78;6634299;26;33553;-89
2022/08/01 06:12:41;;;;;;;5.12;3.30;;;;;;;23.34;56.37;100143.28;6633133;26;34770;-90
2022/08/01 06:15:44;;;;;;;4.82;3.40;;;;;;;23.26;55.78;100148.63;6630686;26;33836;-89
2022/08/01 06:18:46;;;;;;;4.65;3.47;;;;;;;23.93;54.55;100147.72;6601649;26;33693;-89
2022/08/01 06:21:53;;;;;;;3.92;3.58;;;;;;;24.08;52.99;100145.19;6601445;26;33721;-90
2022/08/01 06:36:01;;;;;;;5.18;2.95;;;;;;;28.91;40.92;100136.31;6631259;26;20059;-90
2022/08/01 06:39:07;;;;;;;3.95;3.00;;;;;;;27.87;41.62;100132.47;6633614;26;33653;-89
2022/08/01 06:42:09;;;;;;;5.25;2.97;;;;;;;27.74;42.18;100146.81;6634011;26;33830;-89
2022/08/01 06:45:13;;;;;;;3.00;2.80;;;;;;;27.21;44.14;100146.06;6602143;26;33359;-88
2022/08/01 06:48:16;;;;;;;3.40;3.10;;;;;;;26.83;45.12;100146.16;6603299;27;34102;-87
2022/08/01 06:51:20;;;;;;;5.07;3.17;;;;;;;26.01;47.95;100148.72;6605955;27;32794;-89
2022/08/01 06:54:25;;;;;;;3.35;3.10;;;;;;;25.24;48.83;100149.41;6607403;27;33858;-89
2022/08/01 06:57:28;;;;;;;3.80;2.90;;;;;;;25.00;49.72;100161.25;6605410;26;33429;-88
2022/08/01 07:00:31;;;;;;;3.10;2.90;;;;;;;25.72;49.23;100155.75;6607355;27;33740;-89
2022/08/01 07:03:35;;;;;;;4.85;3.17;;;;;;;26.44;45.99;100145.44;6607984;27;34378;-88
2022/08/01 07:06:57;;;;;;;3.35;2.97;;;;;;;26.21;46.97;100147.16;6610623;27;34368;-87
2022/08/01 07:10:00;;;;;;;3.40;3.00;;;;;;;28.40;41.64;100150.28;6612195;27;32437;-90
2022/08/01 07:13:04;;;;;;;4.15;3.20;;;;;;;28.01;41.35;100136.13;6632763;26;34324;-89
2022/08/01 07:16:07;;;;;;;7.50;3.17;;;;;;;27.59;41.57;100145.00;6637883;26;36167;-89
2022/08/01 07:19:10;;;;;;;4.80;3.00;;;;;;;28.17;41.52;100132.28;6639221;26;32583;-90
2022/08/01 07:22:27;;;;;;;5.28;3.17;;;;;;;27.91;41.97;100128.31;6638075;26;34738;-88
2022/08/01 07:25:31;;;;;;;4.75;2.95;;;;;;;28.29;40.96;100122.53;6639178;26;34733;-89
2022/08/01 07:28:34;;;;;;;5.60;3.40;;;;;;;28.15;40.06;100123.47;6637163;26;34792;-87
2022/08/01 07:31:45;;;;;;;3.28;2.92;;;;;;;27.68;41.74;100127.50;6651471;26;35282;-89
2022/08/01 07:34:48;;;;;;;3.80;3.15;;;;;;;28.01;41.07;100123.38;6650403;26;34039;-89
2022/08/01 07:37:52;;;;;;;3.33;3.08;;;;;;;28.51;39.11;100131.47;6621446;26;32911;-89
2022/08/01 07:40:56;;;;;;;8.63;3.30;;;;;;;28.32;39.31;100129.47;6646432;26;34088;-89
2022/08/01 07:43:59;;;;;;;4.35;2.80;;;;;;;28.04;39.87;100125.69;6638985;26;32861;-89
2022/08/01 07:47:06;;;;;;;4.37;2.90;;;;;;;28.02;40.01;100127.78;6611779;26;34166;-89
2022/08/01 07:50:09;;;;;;;5.00;2.90;;;;;;;28.48;38.79;100128.31;6636945;26;34970;-89
2022/08/01 07:53:12;;;;;;;3.20;2.80;;;;;;;29.38;36.88;100127.44;6639292;26;34146;-90
2022/08/01 07:56:15;;;;;;;6.85;3.35;;;;;;;29.89;35.73;100132.53;6638563;26;34653;-91
2022/08/01 07:59:22;;;;;;;4.05;2.92;;;;;;;30.34;35.73;100124.53;6643857;26;34380;-92
2022/08/01 08:02:27;;;;;;;12.98;2.95;;;;;;;30.87;35.48;100119.13;6621897;26;32555;-92
2022/08/01 08:05:32;;;;;;;3.28;2.80;;;;;;;30.98;33.04;100118.44;6603852;26;32983;-92
2022/08/01 08:08:55;;;;;;;3.62;2.70;;;;;;;31.39;31.28;100119.09;6626603;26;32946;-92
2022/08/01 08:11:58;;;;;;;2.85;2.65;;;;;;;30.20;33.47;100112.78;6646366;26;34349;-92
2022/08/01 08:53:36;;;;;;;4.07;2.80;;;;;;;25.21;44.59;100173.34;6634483;26;20071;-89
2022/08/01 08:56:39;;;;;;;5.25;3.20;;;;;;;25.49;44.11;100170.97;6614263;26;32733;-89
2022/08/01 08:59:46;;;;;;;3.30;3.00;;;;;;;25.77;43.44;100178.63;6613970;26;32274;-90
2022/08/01 09:02:49;;;;;;;4.03;3.08;;;;;;;25.84;42.91;100181.44;6633816;26;33894;-90
2022/08/01 09:05:51;;;;;;;4.15;3.58;;;;;;;25.24;43.88;100178.44;6631902;26;34527;-89
2022/08/01 09:08:54;;;;;;;5.00;3.10;;;;;;;25.91;43.79;100179.72;6636194;26;33500;-90
2022/08/01 09:15:49;;;;;;;3.87;3.12;;;;;;;24.88;44.40;100172.47;6635854;26;20071;-88
2022/08/01 09:19:08;;;;;;;3.25;2.95;;;;;;;25.25;44.79;100186.37;6637524;26;33932;-90
2022/08/01 09:22:22;;;;;;;3.53;3.12;;;;;;;25.32;44.18;100185.66;6636979;26;34227;-88
2022/08/01 09:25:32;;;;;;;5.05;3.33;;;;;;;25.28;44.28;100185.19;6615207;26;32874;-90
2022/08/01 09:28:49;;;;;;;6.60;3.30;;;;;;;25.67;43.26;100178.00;6634175;26;35013;-90
2022/08/01 09:31:52;;;;;;;4.00;3.42;;;;;;;26.14;43.60;100176.09;6633615;26;34978;-88
2022/08/01 09:34:56;;;;;;;4.30;3.00;;;;;;;26.39;43.22;100175.06;6634519;26;34340;-89
2022/08/01 09:38:21;;;;;;;11.50;3.37;;;;;;;26.60;42.02;100171.63;6614207;26;34407;-89
2022/08/01 09:41:31;;;;;;;6.57;3.00;;;;;;;27.03;40.80;100171.81;6616402;26;32699;-88
2022/08/01 09:44:45;;;;;;;5.65;3.17;;;;;;;27.39;40.16;100170.13;6618127;26;33269;-90
2022/08/01 09:47:56;;;;;;;4.22;3.00;;;;;;;26.74;41.19;100169.91;6636000;26;33985;-89
2022/08/01 09:51:00;;;;;;;6.15;3.37;;;;;;;27.23;40.32;100162.16;6639090;26;34721;-89
2022/08/01 09:54:11;;;;;;;9.07;3.30;;;;;;;27.41;38.81;100161.75;6636609;26;33892;-89
2022/08/01 09:57:16;;;;;;;8.95;3.00;;;;;;;27.89;39.46;100163.94;6634484;26;33672;-89
2022/08/01 10:00:21;;;;;;;5.95;3.03;;;;;;;28.72;37.32;100161.59;6618386;26;33072;-91
2022/08/01 10:04:14;;;;;;;3.45;2.90;;;;;;;28.02;37.06;100168.66;6582479;27;34309;-89
2022/08/01 10:07:18;;;;;;;5.55;3.22;;;;;;;28.41;36.17;100163.72;6578739;27;33562;-90
2022/08/01 10:10:31;;;;;;;4.03;3.22;;;;;;;27.20;37.13;100162.56;6580378;27;34299;-90
2022/08/01 10:13:35;;;;;;;3.40;3.10;;;;;;;28.04;37.08;100163.00;6605525;27;33929;-89
2022/08/01 10:16:39;;;;;;;5.30;3.00;;;;;;;28.55;36.95;100172.00;6609884;27;34486;-90
2022/08/01 10:19:43;;;;;;;3.70;3.37;;;;;;;27.94;36.82;100164.19;6594605;27;32755;-91
2022/08/01 10:22:46;;;;;;;6.20;3.20;;;;;;;26.95;38.17;100165.63;6585799;26;33605;-88
2022/08/01 10:26:03;;;;;;;4.00;3.70;;;;;;;27.63;38.93;100165.38;6582037;27;32695;-90
2022/08/01 10:29:09;;;;;;;4.50;3.97;;;;;;;27.74;39.08;100164.00;6600478;26;34281;-89
2022/08/01 10:32:34;;;;;;;7.93;3.37;;;;;;;27.67;37.68;100157.66;6589000;27;34216;-89
2022/08/01 10:35:38;;;;;;;3.72;3.35;;;;;;;27.44;37.77;100164.09;6608480;27;34571;-89
2022/08/01 10:38:55;;;;;;;3.70;3.40;;;;;;;27.08;37.94;100165.78;6582948;27;32821;-88
2022/08/01 10:41:59;;;;;;;3.80;3.05;;;;;;;27.67;38.65;100153.06;6608545;27;33799;-90
2022/08/01 10:45:12;;;;;;;5.50;3.60;;;;;;;27.58;37.05;100156.94;6605057;26;34148;-91
2022/08/01 10:48:24;;;;;;;3.50;3.20;;;;;;;28.04;38.16;100147.50;6637100;26;34829;-91
2022/08/01 11:00:00;;;;;;;5.10;3.50;;;;;;;28.42;35.56;100142.75;6580689;26;20081;-91
2022/08/01 11:18:10;;;;;;;3.58;3.28;;;;;;;29.03;33.69;100139.31;6569132;26;20060;-89
2022/08/01 11:21:14;;;;;;;13.85;3.58;;;;;;;29.87;34.26;100135.50;6609887;27;34724;-91
2022/08/01 11:28:23;;;;;;;3.35;3.15;;;;;;;30.40;31.52;100128.28;6638871;26;20385;-88
2022/08/01 11:31:38;;;;;;;4.82;3.53;;;;;;;31.15;29.92;100127.00;6634974;26;34417;-88
2022/08/01 11:34:55;;;;;;;4.20;3.30;;;;;;;31.90;30.44;100116.41;6634609;26;33888;-87
2022/08/01 11:38:24;;;;;;;3.28;2.97;;;;;;;31.80;30.46;100122.34;6615601;26;33279;-88
2022/08/01 11:41:29;;;;;;;5.18;3.30;;;;;;;31.25;31.01;100120.19;6635855;26;34442;-88
2022/08/01 11:44:50;;;;;;;6.95;3.33;;;;;;;30.78;31.25;100113.06;6640020;26;33917;-88
2022/08/01 11:47:53;;;;;;;3.75;3.40;;;;;;;30.32;32.50;100112.13;6643020;26;34459;-88
2022/08/01 11:50:58;;;;;;;4.22;3.58;;;;;;;30.46;32.63;100108.28;6615703;26;32708;-88
2022/08/01 11:54:03;;;;;;;3.30;3.10;;;;;;;31.49;32.46;100113.09;6639344;26;33953;-87
2022/08/01 11:57:12;;;;;;;3.60;3.00;;;;;;;31.99;31.74;100111.47;6626793;26;32973;-87
2022/08/01 12:15:36;;;;;;;4.10;3.70;;;;;;;31.99;32.68;100101.31;6649710;26;20047;-89
2022/08/01 12:18:42;;;;;;;5.18;3.50;;;;;;;31.38;32.96;100116.56;6648111;26;33821;-88
2022/08/01 12:21:44;;;;;;;5.65;3.90;;;;;;;30.12;34.75;100104.81;6628267;26;33925;-90
2022/08/01 12:24:47;;;;;;;4.45;4.03;;;;;;;30.76;34.91;100107.78;6644475;26;34379;-90
2022/08/01 12:27:50;;;;;;;6.72;4.15;;;;;;;31.24;34.39;100104.81;6647453;26;34122;-88
2022/08/01 12:30:58;;;;;;;4.25;3.90;;;;;;;30.99;35.16;100113.78;6616046;26;32529;-90
2022/08/01 12:34:25;;;;;;;7.20;4.15;;;;;;;31.26;34.74;100102.69;6633516;26;35152;-89
2022/08/01 12:37:29;;;;;;;4.07;3.72;;;;;;;31.82;33.89;100100.19;6633944;26;33700;-89
2022/08/01 12:40:34;;;;;;;4.30;3.60;;;;;;;31.69;33.08;100096.50;6618123;26;32717;-89
2022/08/01 12:43:38;;;;;;;5.25;3.80;;;;;;;31.77;32.80;100100.03;6636126;26;33734;-90
2022/08/01 12:46:41;;;;;;;9.93;3.85;;;;;;;31.67;32.73;100097.78;6635285;26;34261;-90
2022/08/01 12:49:47;;;;;;;3.83;3.53;;;;;;;31.66;32.52;100087.87;6637670;26;34790;-91
2022/08/01 12:52:51;;;;;;;4.00;3.65;;;;;;;31.35;33.38;100098.66;6604016;26;32586;-89
2022/08/01 12:55:55;;;;;;;5.62;3.75;;;;;;;30.53;34.04;100094.59;6638228;26;33940;-89
2022/08/01 13:02:42;;;;;;;3.87;3.00;;;;;;;29.65;34.56;100093.84;6638176;26;20067;-90
2022/08/01 13:05:55;;;;;;;4.15;3.45;;;;;;;30.41;33.03;100078.00;6631103;26;34007;-90
2022/08/01 13:09:19;;;;;;;3.83;3.20;;;;;;;30.53;33.06;100075.44;6634914;26;35065;-90
2022/08/01 13:12:22;;;;;;;4.35;3.75;;;;;;;29.77;34.38;100075.75;6615539;26;34191;-89
2022/08/01 13:15:34;;;;;;;4.82;3.70;;;;;;;29.67;33.47;100089.84;6635725;26;34066;-91
